Time;durP1;ratioP1;P1;durP2;ratioP2;P2;SDS_P1;SDS_P2;PMS_P1;PMS_P2;Temp;Humidity;BMP_temperature;BMP_pressure;BME280_temperature;BME280_humidity;BME280_pressure;Samples;Min_cycle;Max_cycle;Signal;HPM_P1;HPM_P2
2022/06/11 00:00:08;;;;;;;13.95;7.03;;;;;;;18.82;64.24;99357.75;5105630;27;20456;-48
2022/06/11 00:02:35;;;;;;;18.83;7.75;;;;;;;18.72;64.27;99341.78;5141400;27;20043;-48
2022/06/11 00:05:01;;;;;;;22.40;7.57;;;;;;;18.79;64.29;99360.63;5125841;27;20031;-46
2022/06/11 00:07:28;;;;;;;13.77;7.50;;;;;;;18.75;64.30;99359.97;5116632;27;20035;-47
2022/06/11 00:09:54;;;;;;;14.20;7.05;;;;;;;18.74;64.52;99357.44;5113679;28;20050;-48
2022/06/11 00:12:20;;;;;;;14.10;7.68;;;;;;;18.70;64.80;99356.00;5113867;27;20043;-54
2022/06/11 00:14:47;;;;;;;23.67;7.97;;;;;;;18.70;64.97;99364.72;5111968;27;20417;-50
2022/06/11 00:17:14;;;;;;;12.75;7.53;;;;;;;18.69;64.78;99359.56;5131222;27;20498;-47
2022/06/11 00:19:41;;;;;;;19.85;7.93;;;;;;;18.67;64.94;99362.34;5131001;27;20889;-48
2022/06/11 00:22:08;;;;;;;16.42;8.55;;;;;;;18.66;65.05;99365.06;5132454;27;20434;-49
2022/06/11 00:24:36;;;;;;;15.50;7.70;;;;;;;18.66;65.06;99363.28;5130687;27;20050;-47
2022/06/11 00:27:03;;;;;;;14.32;8.07;;;;;;;18.64;65.24;99367.81;5112176;28;20039;-48
2022/06/11 00:29:31;;;;;;;19.60;7.82;;;;;;;18.63;65.22;99363.53;5123747;27;20571;-52
2022/06/11 00:31:57;;;;;;;16.33;7.80;;;;;;;18.60;65.46;99363.72;5131066;27;20035;-47
2022/06/11 00:34:23;;;;;;;18.35;8.32;;;;;;;18.58;65.42;99362.97;5128967;27;20049;-48
2022/06/11 00:36:49;;;;;;;17.85;8.30;;;;;;;18.54;65.80;99361.53;5112023;28;20084;-47
2022/06/11 00:39:19;;;;;;;18.77;7.93;;;;;;;18.51;65.76;99367.84;5113138;27;20038;-50
2022/06/11 00:41:49;;;;;;;14.43;8.05;;;;;;;18.48;65.92;99362.78;5121532;27;20044;-47
2022/06/11 00:44:15;;;;;;;18.48;8.30;;;;;;;18.39;65.84;99354.69;5120651;27;20498;-52
2022/06/11 00:46:48;;;;;;;16.85;8.30;;;;;;;18.45;66.42;99364.81;5131176;27;20054;-48
2022/06/11 00:49:22;;;;;;;21.08;8.38;;;;;;;18.42;66.57;99372.94;5132217;27;20143;-48
2022/06/11 00:51:52;;;;;;;19.75;8.65;;;;;;;18.38;66.40;99374.06;5117271;27;20039;-49
2022/06/11 00:54:22;;;;;;;15.77;8.57;;;;;;;18.35;66.64;99372.50;5132256;27;20096;-47
2022/06/11 00:56:55;;;;;;;16.17;7.57;;;;;;;18.35;66.90;99382.19;5132071;27;20031;-49
2022/06/11 00:59:29;;;;;;;17.75;8.10;;;;;;;18.32;67.07;99382.44;5131582;27;20065;-48
2022/06/11 01:01:55;;;;;;;12.18;8.10;;;;;;;18.30;67.41;99386.94;5120921;27;20073;-49
2022/06/11 01:04:44;;;;;;;20.58;7.63;;;;;;;18.29;67.91;99387.88;5111715;28;20044;-48
2022/06/11 01:07:18;;;;;;;16.92;8.07;;;;;;;18.27;67.97;99393.25;5126648;27;20043;-46
2022/06/11 01:10:25;;;;;;;25.20;9.40;;;;;;;18.25;68.19;99399.59;5133044;27;20063;-49
2022/06/11 01:12:59;;;;;;;13.93;7.60;;;;;;;18.25;68.30;99404.84;5131539;27;20574;-49
2022/06/11 01:15:41;;;;;;;14.57;7.20;;;;;;;18.26;68.42;99402.13;5131154;27;20083;-47
2022/06/11 01:18:12;;;;;;;16.35;8.10;;;;;;;18.26;68.39;99403.91;5110837;28;20126;-51
2022/06/11 01:20:41;;;;;;;14.75;7.82;;;;;;;18.26;68.49;99414.44;5111333;27;20041;-47
2022/06/11 01:23:22;;;;;;;16.92;8.02;;;;;;;18.25;68.71;99410.13;5132651;27;20601;-48
2022/06/11 01:26:19;;;;;;;15.48;8.30;;;;;;;18.25;69.12;99412.75;5131833;27;20066;-47
2022/06/11 01:28:49;;;;;;;11.48;7.95;;;;;;;18.24;68.93;99414.53;5129205;27;20031;-47
2022/06/11 01:31:43;;;;;;;11.00;7.65;;;;;;;18.24;69.11;99419.81;5113368;27;20506;-50
2022/06/11 01:34:35;;;;;;;12.60;7.50;;;;;;;18.14;69.43;99403.81;5111652;28;20043;-48
2022/06/11 01:37:08;;;;;;;10.68;7.88;;;;;;;18.23;69.38;99412.00;5093923;27;20050;-49
2022/06/11 01:39:36;;;;;;;15.65;7.55;;;;;;;18.24;69.22;99417.16;5130548;27;20049;-47
2022/06/11 01:42:21;;;;;;;13.07;7.65;;;;;;;18.24;69.27;99414.53;5123989;27;20055;-46
2022/06/11 01:44:59;;;;;;;16.23;8.75;;;;;;;18.25;69.13;99420.66;5129663;27;20679;-49
2022/06/11 01:47:25;;;;;;;14.32;8.20;;;;;;;18.18;69.29;99418.44;5118620;27;20031;-47
2022/06/11 01:49:51;;;;;;;13.75;7.97;;;;;;;18.23;69.55;99430.44;5130945;27;20088;-48
2022/06/11 01:52:41;;;;;;;15.38;8.13;;;;;;;18.21;70.08;99423.47;5131937;27;20410;-48
2022/06/11 01:55:46;;;;;;;14.10;8.35;;;;;;;18.16;70.19;99403.72;5116854;27;20050;-48
2022/06/11 01:58:20;;;;;;;12.27;8.98;;;;;;;18.22;69.86;99421.69;5113695;27;20051;-47
2022/06/11 02:00:57;;;;;;;14.73;9.00;;;;;;;18.24;70.06;99416.31;5122508;27;20039;-48
2022/06/11 02:03:34;;;;;;;10.48;7.75;;;;;;;18.24;70.40;99411.91;5120305;27;20038;-48
2022/06/11 02:06:03;;;;;;;12.80;8.15;;;;;;;18.28;70.37;99409.88;5111438;27;20445;-47
2022/06/11 02:08:33;;;;;;;;;;;;;;;18.30;70.53;99410.63;5132586;27;20529;-49
2022/06/11 02:11:34;;;;;;;15.43;7.82;;;;;;;18.31;70.09;99407.06;5111758;27;20007;-47
2022/06/11 02:14:21;;;;;;;13.60;8.73;;;;;;;18.32;69.95;99400.84;5129610;27;20050;-47
2022/06/11 02:16:47;;;;;;;12.38;8.23;;;;;;;18.35;70.00;99403.25;5130304;27;20039;-49
2022/06/11 02:19:20;;;;;;;14.07;8.50;;;;;;;18.37;69.79;99396.09;5117711;27;20074;-47
2022/06/11 02:21:52;;;;;;;12.02;8.68;;;;;;;18.40;69.62;99390.59;5113203;28;20126;-47
2022/06/11 02:24:25;;;;;;;19.63;9.60;;;;;;;18.43;69.32;99382.47;5136548;27;20126;-49
2022/06/11 02:26:54;;;;;;;16.95;8.20;;;;;;;18.28;69.05;99360.72;5109681;28;20138;-46
2022/06/11 02:29:21;;;;;;;14.70;8.57;;;;;;;18.46;68.83;99390.19;5110334;28;20043;-46
2022/06/11 02:31:51;;;;;;;15.60;8.73;;;;;;;18.48;68.80;99386.47;5115044;28;20043;-48
2022/06/11 02:34:17;;;;;;;;;;;;;;;18.50;68.73;99381.09;5131103;28;20050;-47
2022/06/11 02:36:59;;;;;;;16.75;9.43;;;;;;;18.52;68.24;99377.44;5130451;28;19921;-46
2022/06/11 02:39:26;;;;;;;16.73;9.20;;;;;;;18.55;68.08;99379.00;5113996;27;20052;-49
2022/06/11 02:41:52;;;;;;;21.45;9.73;;;;;;;18.57;68.12;99375.34;5128529;28;20515;-48
2022/06/11 02:44:18;;;;;;;17.15;9.50;;;;;;;18.60;67.93;99385.63;5131767;27;20049;-48
2022/06/11 02:46:44;;;;;;;16.45;8.80;;;;;;;18.63;67.87;99388.03;5124785;27;20581;-46
2022/06/11 02:49:23;;;;;;;18.23;9.50;;;;;;;18.67;67.68;99387.84;5128671;27;20038;-47
2022/06/11 02:51:50;;;;;;;20.45;8.52;;;;;;;18.71;67.52;99389.28;5135432;27;20484;-48
2022/06/11 02:54:17;;;;;;;16.83;9.15;;;;;;;18.75;67.26;99401.28;5115294;27;20537;-46
2022/06/11 02:56:43;;;;;;;24.90;9.45;;;;;;;18.70;67.22;99382.31;5113634;28;20628;-49
2022/06/11 02:59:10;;;;;;;20.15;9.20;;;;;;;18.81;67.08;99396.41;5114012;28;20053;-48
2022/06/11 03:01:36;;;;;;;31.45;9.52;;;;;;;18.80;66.67;99381.56;5150475;27;20089;-47
2022/06/11 03:04:02;;;;;;;15.88;8.48;;;;;;;18.90;66.54;99390.47;5133805;27;20059;-48
2022/06/11 03:06:30;;;;;;;18.33;8.73;;;;;;;18.94;66.32;99386.69;5119165;27;20122;-46
2022/06/11 03:08:57;;;;;;;20.95;8.00;;;;;;;18.96;66.02;99392.66;5120416;27;20430;-45
2022/06/11 03:11:23;;;;;;;14.52;7.97;;;;;;;19.00;65.77;99394.09;5126850;27;20039;-48
2022/06/11 03:13:49;;;;;;;17.00;7.55;;;;;;;19.04;65.15;99395.59;5130377;27;20035;-49
2022/06/11 03:16:14;;;;;;;13.68;6.80;;;;;;;19.07;64.56;99389.22;5135251;27;20126;-48
2022/06/11 03:18:40;;;;;;;13.38;6.45;;;;;;;19.12;63.99;99391.53;5114493;27;20483;-47
2022/06/11 03:21:06;;;;;;;14.18;6.63;;;;;;;19.15;63.74;99392.16;5134998;27;20047;-52
2022/06/11 03:23:32;;;;;;;16.85;6.43;;;;;;;19.17;63.87;99392.00;5130164;27;20039;-49
2022/06/11 03:25:59;;;;;;;9.73;6.25;;;;;;;19.22;63.28;99395.16;5114910;28;20046;-46
2022/06/11 03:28:27;;;;;;;10.80;6.03;;;;;;;19.27;63.04;99393.84;5115513;27;20043;-47
2022/06/11 03:30:53;;;;;;;13.45;6.22;;;;;;;19.25;62.32;99382.59;5116349;27;20550;-48
2022/06/11 03:33:20;;;;;;;11.45;6.35;;;;;;;19.34;62.37;99396.88;5117106;27;20040;-47
2022/06/11 03:35:49;;;;;;;8.82;6.53;;;;;;;19.38;62.29;99387.78;5130680;27;20076;-49
2022/06/11 03:38:16;;;;;;;9.52;6.65;;;;;;;19.41;62.07;99392.84;5132424;27;20214;-47
2022/06/11 03:40:42;;;;;;;10.52;6.65;;;;;;;19.43;61.77;99389.13;5134643;27;20433;-49
2022/06/11 03:43:08;;;;;;;11.52;6.30;;;;;;;19.43;61.53;99389.13;5132169;27;20092;-46
2022/06/11 03:45:35;;;;;;;7.72;5.63;;;;;;;19.49;61.29;99397.56;5133309;27;20039;-47
2022/06/11 03:48:01;;;;;;;8.80;5.93;;;;;;;19.52;61.31;99400.81;5121990;27;20043;-47
2022/06/11 03:50:32;;;;;;;9.48;7.03;;;;;;;19.58;61.07;99410.03;5117249;27;20080;-47
2022/06/11 03:52:58;;;;;;;12.70;7.18;;;;;;;19.64;60.51;99404.31;5114190;27;20109;-46
2022/06/11 03:55:25;;;;;;;13.68;6.18;;;;;;;19.71;60.17;99405.53;5114001;28;20460;-51
2022/06/11 03:57:53;;;;;;;12.65;8.10;;;;;;;19.79;59.95;99409.25;5113562;27;20082;-47
2022/06/11 04:01:14;;;;;;;11.90;7.90;;;;;;;19.87;60.12;99406.88;5112675;28;20082;-47
2022/06/11 04:03:10;;;;;;;13.85;7.38;;;;;;;19.96;60.37;99412.38;5120015;27;20043;-49
2022/06/11 04:05:37;;;;;;;11.35;6.43;;;;;;;20.05;60.15;99409.03;5115364;27;20096;-50
2022/06/11 04:08:03;;;;;;;48.13;27.92;;;;;;;20.17;59.73;99408.09;5129196;27;20128;-49
2022/06/11 04:10:29;;;;;;;14.18;7.22;;;;;;;20.24;59.39;99396.94;5112633;28;20032;-49
2022/06/11 04:12:55;;;;;;;11.05;6.85;;;;;;;20.50;58.85;99402.00;5130401;27;20043;-49
2022/06/11 04:15:21;;;;;;;14.27;5.90;;;;;;;20.68;58.47;99414.56;5124293;27;20182;-48
2022/06/11 04:17:47;;;;;;;13.95;6.65;;;;;;;20.86;58.22;99406.97;5115317;27;20046;-49
2022/06/11 04:20:14;;;;;;;11.15;5.47;;;;;;;21.06;58.01;99400.03;5132481;27;20031;-47
2022/06/11 04:22:41;;;;;;;10.63;6.35;;;;;;;21.24;58.01;99403.03;5127676;27;20080;-48
2022/06/11 04:25:07;;;;;;;12.68;6.50;;;;;;;21.40;56.99;99391.06;5115390;27;20543;-48
2022/06/11 04:27:33;;;;;;;12.82;6.13;;;;;;;21.54;56.19;99403.94;5132212;27;20042;-51
2022/06/11 04:29:59;;;;;;;11.10;6.25;;;;;;;21.67;56.04;99392.34;5131720;27;20043;-48
2022/06/11 04:32:26;;;;;;;13.80;6.40;;;;;;;21.59;56.56;99369.16;5119533;27;20050;-47
2022/06/11 04:34:53;;;;;;;11.45;6.18;;;;;;;21.72;56.78;99398.09;5132403;27;20405;-50
2022/06/11 04:37:21;;;;;;;10.15;6.03;;;;;;;21.68;56.85;99410.72;5123136;27;20051;-46
2022/06/11 04:39:50;;;;;;;9.90;6.20;;;;;;;21.67;56.88;99418.81;5130004;27;20043;-47
2022/06/11 04:42:16;;;;;;;11.43;6.60;;;;;;;21.70;56.96;99411.44;5126222;27;20068;-50
2022/06/11 04:44:43;;;;;;;15.40;6.30;;;;;;;21.71;57.66;99407.81;5113178;28;20517;-46
2022/06/11 04:47:11;;;;;;;8.40;5.93;;;;;;;21.67;58.11;99402.94;5113609;27;20043;-47
2022/06/11 04:49:37;;;;;;;11.98;6.38;;;;;;;21.64;58.81;99400.53;5097631;28;20043;-51
2022/06/11 04:52:04;;;;;;;16.75;6.88;;;;;;;21.67;59.16;99411.69;5115747;27;20054;-47
2022/06/11 04:54:30;;;;;;;12.88;6.32;;;;;;;21.71;58.79;99405.19;5131424;27;20092;-50
2022/06/11 04:56:56;;;;;;;10.73;6.32;;;;;;;21.87;58.58;99410.00;5112293;27;20083;-50
2022/06/11 04:59:22;;;;;;;13.23;6.00;;;;;;;22.03;56.93;99409.56;5113771;27;20044;-50
2022/06/11 05:01:48;;;;;;;12.52;6.13;;;;;;;22.07;55.73;99408.34;5111609;27;20039;-48
2022/06/11 05:04:14;;;;;;;8.00;4.70;;;;;;;22.05;53.64;99415.56;5132320;27;20043;-46
2022/06/11 05:06:42;;;;;;;9.65;4.65;;;;;;;22.14;52.74;99418.25;5121045;27;20143;-49
2022/06/11 05:09:11;;;;;;;8.07;4.30;;;;;;;22.26;51.97;99411.91;5126961;27;20491;-49
2022/06/11 05:11:37;;;;;;;;;;;;;;;22.42;51.71;99419.34;5120488;27;20492;-45
2022/06/11 05:14:02;;;;;;;5.97;4.07;;;;;;;22.53;51.33;99418.41;5127779;27;19957;-49
2022/06/11 05:16:28;;;;;;;5.13;4.50;;;;;;;22.57;50.78;99409.22;5132410;27;20445;-50
2022/06/11 05:18:54;;;;;;;7.82;3.75;;;;;;;22.83;49.59;99423.69;5126173;27;20082;-48
2022/06/11 05:21:20;;;;;;;5.38;3.90;;;;;;;22.95;48.67;99427.06;5131621;27;20038;-47
2022/06/11 05:23:46;;;;;;;5.57;3.35;;;;;;;23.12;47.25;99431.69;5132493;27;20035;-47
2022/06/11 05:26:19;;;;;;;8.55;4.15;;;;;;;23.45;46.77;99425.97;5128314;27;20118;-48
2022/06/11 05:28:45;;;;;;;10.18;4.38;;;;;;;23.77;46.23;99423.00;5114602;27;20043;-49
2022/06/11 05:31:11;;;;;;;6.07;3.60;;;;;;;24.03;45.10;99423.22;5130895;27;20043;-49
2022/06/11 05:33:37;;;;;;;7.38;3.22;;;;;;;24.21;44.17;99418.03;5129590;27;20062;-49
2022/06/11 05:36:04;;;;;;;6.07;3.58;;;;;;;24.39;43.85;99422.44;5132629;27;20514;-49
2022/06/11 05:38:30;;;;;;;16.70;3.75;;;;;;;24.55;44.53;99423.66;5132008;27;20049;-49
2022/06/11 05:40:57;;;;;;;5.95;3.63;;;;;;;24.74;44.64;99424.38;5132253;27;20097;-46
2022/06/11 05:43:23;;;;;;;8.13;4.10;;;;;;;24.91;44.81;99425.44;5118333;27;20043;-50
2022/06/11 05:45:56;;;;;;;12.88;4.53;;;;;;;25.06;44.74;99428.41;5115032;27;20046;-47
2022/06/11 05:48:27;;;;;;;6.43;4.20;;;;;;;25.18;44.83;99424.50;5126980;27;20125;-48
2022/06/11 05:50:55;;;;;;;7.43;3.90;;;;;;;25.34;45.03;99427.31;5131934;27;20035;-47
2022/06/11 05:53:22;;;;;;;8.50;4.03;;;;;;;25.45;44.42;99432.41;5128837;27;20498;-48
2022/06/11 05:55:49;;;;;;;;;;;;;;;25.63;44.13;99433.28;5131756;27;20054;-47
2022/06/11 05:58:28;;;;;;;5.75;3.70;;;;;;;25.88;42.69;99436.94;5117798;27;19922;-47
2022/06/11 06:00:55;;;;;;;9.20;4.72;;;;;;;26.10;41.99;99427.59;5129149;27;20596;-48
2022/06/11 06:03:21;;;;;;;8.73;4.55;;;;;;;26.45;41.87;99439.97;5117793;27;20099;-47
2022/06/11 06:05:47;;;;;;;6.45;4.00;;;;;;;26.74;41.73;99440.44;5128135;27;20409;-49
2022/06/11 06:08:13;;;;;;;12.18;3.92;;;;;;;26.94;41.13;99439.19;5126307;27;20414;-49
2022/06/11 06:10:40;;;;;;;8.98;4.70;;;;;;;27.11;40.81;99449.91;5112277;27;20503;-48
2022/06/11 06:13:45;;;;;;;7.18;4.25;;;;;;;27.23;39.86;99446.75;5093266;28;20035;-49
2022/06/11 06:15:52;;;;;;;8.55;4.63;;;;;;;27.30;39.12;99444.28;5111315;28;20043;-48
2022/06/11 06:18:20;;;;;;;11.80;4.63;;;;;;;27.38;38.92;99447.78;5115982;27;20043;-48
2022/06/11 06:20:47;;;;;;;9.27;4.72;;;;;;;27.26;39.55;99438.44;5130705;27;20520;-53
2022/06/11 06:23:13;;;;;;;9.38;4.43;;;;;;;27.22;40.52;99453.09;5124032;27;20032;-50
2022/06/11 06:25:39;;;;;;;7.65;4.18;;;;;;;26.94;41.81;99454.38;5112745;28;20122;-51
2022/06/11 06:28:05;;;;;;;8.80;4.82;;;;;;;26.62;42.16;99452.38;5124328;27;20130;-48
2022/06/11 06:30:31;;;;;;;11.77;4.80;;;;;;;26.28;42.13;99457.72;5110220;28;20040;-50
2022/06/11 06:32:57;;;;;;;11.98;5.50;;;;;;;26.07;42.32;99459.88;5127096;28;20042;-50
2022/06/11 06:35:22;;;;;;;14.55;5.35;;;;;;;26.00;42.69;99461.50;5128698;28;20047;-50
2022/06/11 06:37:48;;;;;;;12.88;5.10;;;;;;;26.08;42.73;99457.06;5118518;27;20039;-51
2022/06/11 06:40:14;;;;;;;11.48;5.60;;;;;;;26.23;42.46;99462.69;5123365;28;20415;-48
2022/06/11 06:42:40;;;;;;;10.95;5.85;;;;;;;26.35;42.26;99458.75;5124691;27;20040;-50
2022/06/11 06:45:06;;;;;;;11.80;6.07;;;;;;;26.39;42.08;99457.44;5118110;28;20051;-48
2022/06/11 06:47:31;;;;;;;15.10;5.28;;;;;;;26.61;41.85;99456.03;5129575;27;20511;-51
2022/06/11 06:49:57;;;;;;;9.15;6.15;;;;;;;27.11;41.30;99466.75;5120096;28;20069;-47
2022/06/11 06:52:23;;;;;;;10.02;5.15;;;;;;;27.98;40.37;99468.84;5130581;28;20045;-48
2022/06/11 06:54:49;;;;;;;8.77;5.03;;;;;;;28.22;39.02;99468.81;5123142;28;20450;-47
2022/06/11 06:57:16;;;;;;;13.88;5.60;;;;;;;28.36;38.67;99469.97;5110763;28;20130;-49
2022/06/11 06:59:45;;;;;;;10.68;6.47;;;;;;;28.67;38.03;99464.69;5114612;28;20522;-50
2022/06/11 07:02:13;;;;;;;9.48;5.97;;;;;;;28.81;37.30;99458.63;5123903;28;20036;-50
2022/06/11 07:04:39;;;;;;;10.83;5.23;;;;;;;28.56;37.30;99465.91;5118780;28;20522;-47
2022/06/11 07:07:06;;;;;;;9.93;4.82;;;;;;;28.33;38.07;99470.31;5128354;27;20848;-48
2022/06/11 07:09:32;;;;;;;11.70;5.60;;;;;;;28.23;38.99;99467.00;5128129;27;20421;-49
2022/06/11 07:11:57;;;;;;;9.00;6.00;;;;;;;28.21;39.55;99471.69;5113584;28;20126;-48
2022/06/11 07:14:26;;;;;;;10.80;5.35;;;;;;;28.35;39.35;99467.47;5112793;28;20042;-51
2022/06/11 07:16:54;;;;;;;13.15;6.15;;;;;;;28.37;39.22;99460.13;5110142;28;20094;-51
2022/06/11 07:19:28;;;;;;;11.75;5.95;;;;;;;28.39;38.90;99468.78;5115248;28;20122;-49
2022/06/11 07:21:57;;;;;;;14.77;5.50;;;;;;;28.17;38.78;99476.53;5128219;27;20039;-48
2022/06/11 07:24:26;;;;;;;11.55;5.60;;;;;;;27.92;39.87;99479.38;5131233;27;20066;-49
2022/06/11 07:26:55;;;;;;;13.70;5.25;;;;;;;27.72;40.25;99479.72;5129558;28;20136;-49
2022/06/11 07:29:42;;;;;;;12.95;5.57;;;;;;;27.55;40.80;99477.19;5126786;27;20533;-49
2022/06/11 07:32:13;;;;;;;15.30;5.32;;;;;;;27.53;41.05;99473.88;5125477;27;20526;-53
2022/06/11 07:34:40;;;;;;;8.38;5.05;;;;;;;27.86;40.00;99456.81;5105432;27;20027;-51
2022/06/11 07:37:06;;;;;;;11.98;4.88;;;;;;;28.67;37.97;99479.91;5131196;27;20039;-44
2022/06/11 07:39:33;;;;;;;11.55;5.28;;;;;;;29.20;37.08;99466.63;5112762;27;20085;-43
2022/06/11 07:41:58;;;;;;;12.93;5.75;;;;;;;28.93;37.15;99459.91;5132609;27;20058;-43
2022/06/11 07:44:24;;;;;;;7.93;4.57;;;;;;;28.43;38.22;99468.28;5133402;27;20035;-44
2022/06/11 07:46:50;;;;;;;8.73;4.43;;;;;;;28.02;39.15;99472.84;5115934;27;20050;-44
2022/06/11 07:49:16;;;;;;;15.00;4.38;;;;;;;27.69;39.78;99474.69;5122095;27;20061;-43
2022/06/11 07:51:43;;;;;;;11.38;4.55;;;;;;;27.41;39.65;99476.00;5116337;27;20043;-43
2022/06/11 07:54:09;;;;;;;8.05;4.25;;;;;;;27.11;39.72;99473.94;5129296;27;20053;-43
2022/06/11 07:56:37;;;;;;;7.85;4.40;;;;;;;26.99;40.26;99478.75;5114069;28;20474;-42
2022/06/11 07:59:04;;;;;;;8.88;4.45;;;;;;;26.93;41.16;99482.03;5114057;27;20097;-42
2022/06/11 08:01:30;;;;;;;11.50;5.40;;;;;;;26.96;41.38;99487.88;5113590;27;20031;-42
2022/06/11 08:03:57;;;;;;;9.38;4.63;;;;;;;26.96;41.61;99481.72;5121080;27;20043;-42
2022/06/11 08:06:23;;;;;;;7.95;4.32;;;;;;;26.96;41.35;99490.56;5119197;27;20511;-43
2022/06/11 08:08:50;;;;;;;7.70;4.93;;;;;;;26.90;41.03;99493.06;5114811;27;20046;-43
2022/06/11 08:11:15;;;;;;;10.05;4.70;;;;;;;26.87;40.89;99488.88;5117487;27;20081;-43
2022/06/11 08:13:41;;;;;;;9.57;4.75;;;;;;;26.82;40.94;99495.66;5126434;27;20039;-45
2022/06/11 08:16:09;;;;;;;6.60;4.00;;;;;;;26.72;41.42;99486.94;5117656;27;20129;-44
2022/06/11 08:18:35;;;;;;;10.93;4.35;;;;;;;26.49;41.92;99491.97;5119011;27;20475;-42
2022/06/11 08:21:01;;;;;;;9.20;3.83;;;;;;;26.25;42.00;99492.69;5113745;27;20130;-42
2022/06/11 08:23:27;;;;;;;14.98;4.38;;;;;;;26.01;42.54;99492.50;5112906;27;20491;-43
2022/06/11 08:25:53;;;;;;;7.38;4.10;;;;;;;25.71;42.81;99475.94;5128645;27;20043;-42
2022/06/11 08:28:19;;;;;;;12.82;4.43;;;;;;;25.72;43.50;99493.59;5116858;27;20065;-42
2022/06/11 08:30:45;;;;;;;9.35;4.18;;;;;;;25.62;44.22;99498.16;5120208;27;20039;-43
2022/06/11 08:33:11;;;;;;;6.85;3.85;;;;;;;25.55;45.21;99493.56;5112087;28;20176;-42
2022/06/11 08:35:38;;;;;;;10.38;4.32;;;;;;;25.39;45.79;99486.25;5119747;27;20067;-43
2022/06/11 08:38:05;;;;;;;6.05;4.25;;;;;;;25.20;46.75;99478.41;5128717;27;20530;-43
2022/06/11 08:40:35;;;;;;;6.93;3.83;;;;;;;25.33;46.90;99502.03;5120998;27;20055;-42
2022/06/11 08:43:21;;;;;;;8.30;3.35;;;;;;;25.37;46.43;99498.91;5120498;27;20151;-45
2022/06/11 08:45:54;;;;;;;13.77;4.43;;;;;;;25.44;46.60;99493.78;5129179;27;20404;-42
2022/06/11 08:48:38;;;;;;;6.13;3.17;;;;;;;25.39;46.73;99491.59;5109015;27;20050;-43
2022/06/11 08:51:04;;;;;;;8.57;3.45;;;;;;;25.31;46.01;99480.88;5114425;27;20044;-42
2022/06/11 08:53:32;;;;;;;9.50;3.63;;;;;;;25.32;46.66;99485.22;5116782;27;20050;-44
2022/06/11 08:55:58;;;;;;;9.25;3.53;;;;;;;25.25;47.87;99489.44;5107506;27;20034;-43
2022/06/11 08:58:42;;;;;;;8.88;4.10;;;;;;;25.15;49.36;99488.69;5122221;27;20422;-43
2022/06/11 09:01:19;;;;;;;19.33;4.18;;;;;;;25.04;48.85;99481.75;5126150;27;20031;-44
2022/06/11 09:04:23;;;;;;;7.80;3.70;;;;;;;24.88;48.58;99484.22;5120055;27;20031;-44
2022/06/11 09:07:10;;;;;;;9.57;3.45;;;;;;;24.73;49.13;99475.88;5120068;27;20038;-44
2022/06/11 09:09:53;;;;;;;9.55;3.42;;;;;;;24.78;49.46;99470.94;5115584;27;20074;-43
2022/06/11 09:12:46;;;;;;;8.40;3.70;;;;;;;24.94;48.34;99486.28;5118945;27;20034;-43
2022/06/11 09:15:41;;;;;;;10.15;3.13;;;;;;;25.01;48.08;99478.56;5130132;27;20054;-42
2022/06/11 09:18:28;;;;;;;10.32;3.58;;;;;;;25.03;47.34;99490.72;5109131;27;20043;-42
2022/06/11 09:21:09;;;;;;;9.63;3.90;;;;;;;25.00;48.42;99492.84;5126386;27;20035;-43
2022/06/11 09:24:00;;;;;;;11.57;4.53;;;;;;;24.89;48.81;99492.06;5128705;27;20055;-42
2022/06/11 09:27:10;;;;;;;8.65;3.53;;;;;;;24.74;48.34;99500.66;5128102;27;20043;-44
2022/06/11 09:30:02;;;;;;;7.25;3.60;;;;;;;24.49;48.87;99500.31;5100187;27;20101;-43
2022/06/11 09:32:33;;;;;;;5.55;3.40;;;;;;;24.32;49.26;99502.91;5128951;27;20058;-42
2022/06/11 09:35:12;;;;;;;4.90;3.20;;;;;;;24.16;49.22;99498.16;5128314;27;20452;-42
2022/06/11 09:37:58;;;;;;;11.10;3.65;;;;;;;24.00;50.53;99495.25;5125756;27;20403;-42
2022/06/11 09:40:32;;;;;;;8.85;3.58;;;;;;;23.86;51.15;99499.19;5127993;27;20124;-42
2022/06/11 09:43:22;;;;;;;9.68;3.28;;;;;;;23.73;51.95;99495.13;5103058;27;20039;-43
2022/06/11 09:45:56;;;;;;;9.60;3.40;;;;;;;23.58;52.23;99498.22;5129982;27;20102;-43
2022/06/11 09:48:41;;;;;;;6.88;2.85;;;;;;;23.48;52.53;99500.03;5124196;27;20115;-42
2022/06/11 09:51:41;;;;;;;6.35;3.20;;;;;;;23.41;52.54;99500.66;5119659;27;20061;-42
2022/06/11 09:54:34;;;;;;;7.53;3.15;;;;;;;23.32;52.91;99499.69;5129714;27;20039;-43
2022/06/11 09:57:03;;;;;;;12.07;3.30;;;;;;;23.32;52.85;99509.47;5126613;27;20035;-42
2022/06/11 09:59:57;;;;;;;6.95;3.30;;;;;;;23.41;52.81;99505.97;5128794;27;20035;-41
2022/06/11 10:02:34;;;;;;;5.00;3.17;;;;;;;23.54;52.52;99507.44;5077922;27;20056;-42
2022/06/11 10:05:05;;;;;;;4.40;2.67;;;;;;;23.68;52.19;99505.31;5130372;27;20130;-41
2022/06/11 10:07:37;;;;;;;7.28;3.35;;;;;;;23.93;51.02;99502.94;5119678;27;20036;-41
2022/06/11 10:10:08;;;;;;;4.93;3.15;;;;;;;24.20;50.30;99504.88;5113308;27;20049;-41
2022/06/11 10:12:47;;;;;;;6.78;2.80;;;;;;;24.37;50.16;99503.31;5129288;27;20510;-42
2022/06/11 10:15:15;;;;;;;7.63;3.10;;;;;;;24.43;50.01;99500.06;5130736;27;20142;-40
2022/06/11 10:17:50;;;;;;;7.00;3.42;;;;;;;24.32;49.39;99484.28;5131112;27;20027;-41
2022/06/11 10:20:24;;;;;;;4.05;3.03;;;;;;;24.34;49.00;99504.41;5113316;27;20108;-45
2022/06/11 10:22:58;;;;;;;5.20;2.88;;;;;;;24.29;48.83;99495.19;5110332;28;20395;-43
2022/06/11 10:25:32;;;;;;;9.57;2.95;;;;;;;24.23;49.09;99493.97;5121213;28;20569;-45
2022/06/11 10:28:08;;;;;;;7.80;3.10;;;;;;;24.15;49.72;99487.66;5112355;27;20042;-42
2022/06/11 10:30:56;;;;;;;7.03;3.00;;;;;;;24.10;49.67;99488.09;5115751;28;20145;-42
2022/06/11 10:33:34;;;;;;;8.60;3.25;;;;;;;24.08;49.36;99490.03;5107359;28;20064;-42
2022/06/11 10:36:07;;;;;;;4.20;3.17;;;;;;;24.04;48.70;99478.03;5104995;28;20448;-41
2022/06/11 10:38:37;;;;;;;5.68;3.58;;;;;;;24.25;48.73;99496.47;5108970;28;20073;-42
2022/06/11 10:41:05;;;;;;;9.75;3.20;;;;;;;24.36;48.35;99488.34;5125748;28;20590;-46
2022/06/11 10:43:51;;;;;;;9.07;3.45;;;;;;;24.42;47.84;99485.94;5122555;28;20623;-41
2022/06/11 10:46:17;;;;;;;4.10;2.83;;;;;;;24.47;48.15;99477.53;5130439;27;20467;-43
2022/06/11 10:48:43;;;;;;;4.85;2.88;;;;;;;24.47;48.29;99467.72;5112379;27;20035;-43
2022/06/11 10:51:17;;;;;;;4.88;2.80;;;;;;;24.62;48.33;99480.53;5108323;28;20044;-45
2022/06/11 10:53:57;;;;;;;6.00;3.30;;;;;;;24.59;48.54;99473.72;5109764;28;20032;-45
2022/06/11 10:56:34;;;;;;;4.70;2.90;;;;;;;24.57;48.42;99483.63;5125063;28;20122;-50
2022/06/11 10:59:10;;;;;;;6.65;3.00;;;;;;;24.46;48.52;99471.38;5093163;28;20441;-44
2022/06/11 11:01:44;;;;;;;3.67;3.13;;;;;;;24.40;48.98;99485.25;5092873;28;20046;-45
2022/06/11 11:04:22;;;;;;;4.38;3.15;;;;;;;24.42;48.81;99477.97;5117531;28;20039;-44
2022/06/11 11:07:08;;;;;;;5.70;3.13;;;;;;;24.48;48.32;99474.72;5123513;27;20039;-44
2022/06/11 11:09:33;;;;;;;4.55;3.00;;;;;;;24.49;48.61;99480.88;5133797;27;20035;-43
2022/06/11 11:12:03;;;;;;;6.25;3.72;;;;;;;24.49;47.99;99481.69;5135368;27;20533;-44
2022/06/11 11:14:38;;;;;;;7.40;3.30;;;;;;;24.51;48.51;99478.91;5134239;27;20035;-44
2022/06/11 11:17:06;;;;;;;5.78;3.15;;;;;;;24.55;47.09;99484.78;5117485;27;20122;-45
2022/06/11 11:19:34;;;;;;;6.65;2.97;;;;;;;24.61;47.46;99484.16;5123332;27;20043;-45
2022/06/11 11:22:10;;;;;;;7.00;3.30;;;;;;;24.68;48.41;99477.28;5117025;27;20035;-48
2022/06/11 11:24:37;;;;;;;6.80;3.70;;;;;;;24.81;48.37;99478.63;5102654;28;20050;-45
2022/06/11 11:27:09;;;;;;;10.60;3.55;;;;;;;24.92;48.33;99474.94;5114657;28;20043;-46
2022/06/11 11:29:37;;;;;;;7.32;3.53;;;;;;;24.95;46.39;99473.84;5113391;28;20047;-47
2022/06/11 11:32:25;;;;;;;6.50;3.35;;;;;;;25.11;46.37;99487.31;5096046;28;20067;-46
2022/06/11 11:34:51;;;;;;;9.68;3.30;;;;;;;25.14;46.34;99481.69;5129649;27;20039;-44
2022/06/11 11:37:17;;;;;;;6.78;3.47;;;;;;;25.14;46.36;99484.34;5133742;27;20031;-45
2022/06/11 11:39:53;;;;;;;6.60;4.03;;;;;;;25.13;46.35;99487.97;5134615;27;20066;-44
2022/06/11 11:42:23;;;;;;;15.25;3.33;;;;;;;25.08;46.59;99490.25;5133968;27;20043;-43
2022/06/11 11:44:51;;;;;;;7.80;3.38;;;;;;;24.97;46.33;99488.63;5118059;27;20032;-43
2022/06/11 11:47:23;;;;;;;7.93;3.28;;;;;;;24.79;46.84;99487.75;5113120;28;20116;-43